sensor_id;sensor_type;location;lat;lon;timestamp;P1;durP1;ratioP1;P2;durP2;ratioP2
72132;SDS011;60008;50.826;6.896;2024-02-21T00:01:46;14.23;;;3.35;;
72132;SDS011;60008;50.826;6.896;2024-02-21T00:04:31;11.82;;;2.60;;
72132;SDS011;60008;50.826;6.896;2024-02-21T00:07:17;10.43;;;2.50;;
72132;SDS011;60008;50.826;6.896;2024-02-21T00:10:02;8.88;;;2.95;;
72132;SDS011;60008;50.826;6.896;2024-02-21T00:12:48;10.38;;;3.25;;
72132;SDS011;60008;50.826;6.896;2024-02-21T00:15:33;11.32;;;2.90;;
72132;SDS011;60008;50.826;6.896;2024-02-21T00:18:18;11.52;;;3.40;;
72132;SDS011;60008;50.826;6.896;2024-02-21T00:21:02;11.70;;;3.20;;
72132;SDS011;60008;50.826;6.896;2024-02-21T00:23:47;10.23;;;3.30;;
72132;SDS011;60008;50.826;6.896;2024-02-21T00:26:35;12.20;;;3.20;;
72132;SDS011;60008;50.826;6.896;2024-02-21T00:29:20;10.98;;;2.95;;
72132;SDS011;60008;50.826;6.896;2024-02-21T00:32:05;7.40;;;2.90;;
72132;SDS011;60008;50.826;6.896;2024-02-21T00:34:50;10.63;;;3.27;;
72132;SDS011;60008;50.826;6.896;2024-02-21T00:37:35;11.40;;;2.90;;
72132;SDS011;60008;50.826;6.896;2024-02-21T00:40:20;10.52;;;3.40;;
72132;SDS011;60008;50.826;6.896;2024-02-21T00:43:06;10.18;;;2.80;;
72132;SDS011;60008;50.826;6.896;2024-02-21T00:45:51;10.15;;;2.95;;
72132;SDS011;60008;50.826;6.896;2024-02-21T00:48:36;12.23;;;2.60;;
72132;SDS011;60008;50.826;6.896;2024-02-21T00:51:22;9.13;;;3.15;;
72132;SDS011;60008;50.826;6.896;2024-02-21T00:54:07;8.88;;;3.00;;
72132;SDS011;60008;50.826;6.896;2024-02-21T00:56:52;8.38;;;2.40;;
72132;SDS011;60008;50.826;6.896;2024-02-21T00:59:37;12.57;;;2.70;;
72132;SDS011;60008;50.826;6.896;2024-02-21T01:02:22;8.27;;;2.50;;
72132;SDS011;60008;50.826;6.896;2024-02-21T01:05:07;12.27;;;3.03;;
72132;SDS011;60008;50.826;6.896;2024-02-21T01:07:53;9.32;;;2.88;;
72132;SDS011;60008;50.826;6.896;2024-02-21T01:10:38;11.85;;;3.10;;
72132;SDS011;60008;50.826;6.896;2024-02-21T01:13:23;8.43;;;2.47;;
72132;SDS011;60008;50.826;6.896;2024-02-21T01:16:08;10.93;;;2.10;;
72132;SDS011;60008;50.826;6.896;2024-02-21T01:18:53;10.50;;;2.30;;
72132;SDS011;60008;50.826;6.896;2024-02-21T01:21:38;9.07;;;2.47;;
72132;SDS011;60008;50.826;6.896;2024-02-21T01:24:23;8.55;;;2.42;;
72132;SDS011;60008;50.826;6.896;2024-02-21T01:27:08;11.68;;;2.50;;
72132;SDS011;60008;50.826;6.896;2024-02-21T01:29:53;11.63;;;2.80;;
72132;SDS011;60008;50.826;6.896;2024-02-21T01:32:38;11.52;;;2.67;;
72132;SDS011;60008;50.826;6.896;2024-02-21T01:35:23;11.90;;;3.40;;
72132;SDS011;60008;50.826;6.896;2024-02-21T01:38:08;9.25;;;2.72;;
72132;SDS011;60008;50.826;6.896;2024-02-21T01:40:53;10.40;;;2.75;;
72132;SDS011;60008;50.826;6.896;2024-02-21T01:43:38;10.90;;;2.70;;
72132;SDS011;60008;50.826;6.896;2024-02-21T01:46:24;9.88;;;2.78;;
72132;SDS011;60008;50.826;6.896;2024-02-21T01:49:12;9.65;;;2.97;;
72132;SDS011;60008;50.826;6.896;2024-02-21T01:51:57;10.27;;;2.80;;
72132;SDS011;60008;50.826;6.896;2024-02-21T01:54:43;15.18;;;3.10;;
72132;SDS011;60008;50.826;6.896;2024-02-21T01:57:29;11.20;;;2.40;;
72132;SDS011;60008;50.826;6.896;2024-02-21T02:00:14;13.18;;;3.25;;
72132;SDS011;60008;50.826;6.896;2024-02-21T02:03:01;8.57;;;2.58;;
72132;SDS011;60008;50.826;6.896;2024-02-21T02:05:46;9.50;;;2.92;;
72132;SDS011;60008;50.826;6.896;2024-02-21T02:08:32;12.88;;;3.60;;
72132;SDS011;60008;50.826;6.896;2024-02-21T02:11:18;10.17;;;2.67;;
72132;SDS011;60008;50.826;6.896;2024-02-21T02:14:03;13.73;;;2.65;;
72132;SDS011;60008;50.826;6.896;2024-02-21T02:16:48;11.75;;;2.38;;
72132;SDS011;60008;50.826;6.896;2024-02-21T02:19:33;9.40;;;2.25;;
72132;SDS011;60008;50.826;6.896;2024-02-21T02:22:22;10.68;;;2.42;;
72132;SDS011;60008;50.826;6.896;2024-02-21T02:25:13;9.50;;;3.00;;
72132;SDS011;60008;50.826;6.896;2024-02-21T02:27:58;9.70;;;2.90;;
72132;SDS011;60008;50.826;6.896;2024-02-21T02:30:44;7.70;;;2.35;;
72132;SDS011;60008;50.826;6.896;2024-02-21T02:33:29;8.90;;;2.75;;
72132;SDS011;60008;50.826;6.896;2024-02-21T02:36:14;8.48;;;1.95;;
72132;SDS011;60008;50.826;6.896;2024-02-21T02:38:59;8.47;;;2.17;;
72132;SDS011;60008;50.826;6.896;2024-02-21T02:41:44;9.48;;;2.17;;
72132;SDS011;60008;50.826;6.896;2024-02-21T02:44:29;9.20;;;2.08;;
72132;SDS011;60008;50.826;6.896;2024-02-21T02:47:14;10.55;;;2.65;;
72132;SDS011;60008;50.826;6.896;2024-02-21T02:49:59;8.70;;;2.58;;
72132;SDS011;60008;50.826;6.896;2024-02-21T02:52:44;11.07;;;2.03;;
72132;SDS011;60008;50.826;6.896;2024-02-21T02:55:29;8.63;;;2.25;;
72132;SDS011;60008;50.826;6.896;2024-02-21T02:58:14;11.00;;;2.75;;
72132;SDS011;60008;50.826;6.896;2024-02-21T03:00:59;9.27;;;2.17;;
72132;SDS011;60008;50.826;6.896;2024-02-21T03:03:44;10.32;;;2.47;;
72132;SDS011;60008;50.826;6.896;2024-02-21T03:06:31;7.23;;;2.23;;
72132;SDS011;60008;50.826;6.896;2024-02-21T03:09:16;11.90;;;2.70;;
72132;SDS011;60008;50.826;6.896;2024-02-21T03:12:02;7.28;;;2.63;;
72132;SDS011;60008;50.826;6.896;2024-02-21T03:14:47;10.15;;;2.70;;
72132;SDS011;60008;50.826;6.896;2024-02-21T03:17:32;8.30;;;2.42;;
72132;SDS011;60008;50.826;6.896;2024-02-21T03:20:20;10.27;;;2.73;;
72132;SDS011;60008;50.826;6.896;2024-02-21T03:23:05;10.95;;;2.65;;
72132;SDS011;60008;50.826;6.896;2024-02-21T03:25:50;5.88;;;2.35;;
72132;SDS011;60008;50.826;6.896;2024-02-21T03:28:36;12.48;;;2.83;;
72132;SDS011;60008;50.826;6.896;2024-02-21T03:31:21;9.10;;;2.53;;
72132;SDS011;60008;50.826;6.896;2024-02-21T03:34:06;10.30;;;2.80;;
72132;SDS011;60008;50.826;6.896;2024-02-21T03:36:51;12.52;;;2.40;;
72132;SDS011;60008;50.826;6.896;2024-02-21T03:39:36;8.82;;;2.50;;
72132;SDS011;60008;50.826;6.896;2024-02-21T03:42:21;11.40;;;2.63;;
72132;SDS011;60008;50.826;6.896;2024-02-21T03:45:07;10.68;;;2.35;;
72132;SDS011;60008;50.826;6.896;2024-02-21T03:47:52;7.10;;;2.43;;
72132;SDS011;60008;50.826;6.896;2024-02-21T03:50:37;9.98;;;2.50;;
72132;SDS011;60008;50.826;6.896;2024-02-21T03:53:23;10.77;;;2.35;;
72132;SDS011;60008;50.826;6.896;2024-02-21T03:56:08;8.55;;;2.47;;
72132;SDS011;60008;50.826;6.896;2024-02-21T03:58:53;7.10;;;2.30;;
72132;SDS011;60008;50.826;6.896;2024-02-21T04:01:38;9.53;;;2.03;;
72132;SDS011;60008;50.826;6.896;2024-02-21T04:04:23;6.07;;;2.20;;
72132;SDS011;60008;50.826;6.896;2024-02-21T04:07:08;14.63;;;2.78;;
72132;SDS011;60008;50.826;6.896;2024-02-21T04:09:53;8.40;;;2.47;;
72132;SDS011;60008;50.826;6.896;2024-02-21T04:12:38;9.20;;;2.38;;
72132;SDS011;60008;50.826;6.896;2024-02-21T04:15:23;7.93;;;2.53;;
72132;SDS011;60008;50.826;6.896;2024-02-21T04:18:08;12.23;;;2.50;;
72132;SDS011;60008;50.826;6.896;2024-02-21T04:20:53;9.65;;;2.83;;
72132;SDS011;60008;50.826;6.896;2024-02-21T04:23:38;11.15;;;2.33;;
72132;SDS011;60008;50.826;6.896;2024-02-21T04:26:23;13.20;;;2.65;;
72132;SDS011;60008;50.826;6.896;2024-02-21T04:29:08;11.03;;;2.60;;
72132;SDS011;60008;50.826;6.896;2024-02-21T04:31:53;8.48;;;2.30;;
72132;SDS011;60008;50.826;6.896;2024-02-21T04:34:40;9.20;;;2.38;;
72132;SDS011;60008;50.826;6.896;2024-02-21T04:37:25;8.18;;;2.08;;
72132;SDS011;60008;50.826;6.896;2024-02-21T04:40:10;10.18;;;2.13;;
72132;SDS011;60008;50.826;6.896;2024-02-21T04:42:56;7.67;;;2.10;;
72132;SDS011;60008;50.826;6.896;2024-02-21T04:45:42;10.85;;;2.47;;
72132;SDS011;60008;50.826;6.896;2024-02-21T04:48:27;7.03;;;2.17;;
72132;SDS011;60008;50.826;6.896;2024-02-21T04:51:12;9.30;;;2.10;;
72132;SDS011;60008;50.826;6.896;2024-02-21T04:53:58;9.68;;;2.28;;
72132;SDS011;60008;50.826;6.896;2024-02-21T04:56:43;8.80;;;1.83;;
72132;SDS011;60008;50.826;6.896;2024-02-21T04:59:28;10.77;;;2.13;;
72132;SDS011;60008;50.826;6.896;2024-02-21T05:02:14;7.05;;;1.92;;
72132;SDS011;60008;50.826;6.896;2024-02-21T05:04:59;10.20;;;2.20;;
72132;SDS011;60008;50.826;6.896;2024-02-21T05:07:45;7.75;;;1.85;;
72132;SDS011;60008;50.826;6.896;2024-02-21T05:10:30;5.63;;;1.83;;
72132;SDS011;60008;50.826;6.896;2024-02-21T05:13:15;7.00;;;1.80;;
72132;SDS011;60008;50.826;6.896;2024-02-21T05:16:00;8.20;;;2.58;;
72132;SDS011;60008;50.826;6.896;2024-02-21T05:18:47;9.77;;;2.38;;
72132;SDS011;60008;50.826;6.896;2024-02-21T05:21:32;11.75;;;2.60;;
72132;SDS011;60008;50.826;6.896;2024-02-21T05:24:17;8.60;;;2.33;;
72132;SDS011;60008;50.826;6.896;2024-02-21T05:27:02;10.32;;;2.40;;
72132;SDS011;60008;50.826;6.896;2024-02-21T05:29:48;7.80;;;2.30;;
72132;SDS011;60008;50.826;6.896;2024-02-21T05:32:34;7.43;;;2.28;;
72132;SDS011;60008;50.826;6.896;2024-02-21T05:35:19;8.38;;;2.30;;
72132;SDS011;60008;50.826;6.896;2024-02-21T05:38:05;7.90;;;2.10;;
72132;SDS011;60008;50.826;6.896;2024-02-21T05:40:56;13.07;;;3.10;;
72132;SDS011;60008;50.826;6.896;2024-02-21T05:43:42;9.63;;;2.20;;
72132;SDS011;60008;50.826;6.896;2024-02-21T05:46:26;9.05;;;2.58;;
72132;SDS011;60008;50.826;6.896;2024-02-21T05:49:12;7.75;;;2.40;;
72132;SDS011;60008;50.826;6.896;2024-02-21T05:51:57;10.33;;;2.20;;
72132;SDS011;60008;50.826;6.896;2024-02-21T05:54:42;5.80;;;1.95;;
72132;SDS011;60008;50.826;6.896;2024-02-21T05:57:27;10.02;;;2.30;;
72132;SDS011;60008;50.826;6.896;2024-02-21T06:00:12;7.82;;;2.10;;
72132;SDS011;60008;50.826;6.896;2024-02-21T06:02:58;11.35;;;2.38;;
72132;SDS011;60008;50.826;6.896;2024-02-21T06:05:43;7.67;;;2.30;;
72132;SDS011;60008;50.826;6.896;2024-02-21T06:08:28;7.10;;;2.22;;
72132;SDS011;60008;50.826;6.896;2024-02-21T06:11:13;6.90;;;1.88;;
72132;SDS011;60008;50.826;6.896;2024-02-21T06:14:00;6.07;;;2.00;;
72132;SDS011;60008;50.826;6.896;2024-02-21T06:16:45;6.15;;;2.00;;
72132;SDS011;60008;50.826;6.896;2024-02-21T06:19:30;8.80;;;2.00;;
72132;SDS011;60008;50.826;6.896;2024-02-21T06:22:15;8.13;;;1.75;;
72132;SDS011;60008;50.826;6.896;2024-02-21T06:25:00;8.55;;;2.10;;
72132;SDS011;60008;50.826;6.896;2024-02-21T06:27:45;6.13;;;1.67;;
72132;SDS011;60008;50.826;6.896;2024-02-21T06:30:30;7.25;;;2.05;;
72132;SDS011;60008;50.826;6.896;2024-02-21T06:33:15;9.77;;;2.20;;
72132;SDS011;60008;50.826;6.896;2024-02-21T06:36:00;5.78;;;1.95;;
72132;SDS011;60008;50.826;6.896;2024-02-21T06:38:45;8.30;;;2.17;;
72132;SDS011;60008;50.826;6.896;2024-02-21T06:41:31;9.13;;;2.20;;
72132;SDS011;60008;50.826;6.896;2024-02-21T06:44:17;6.97;;;2.05;;
72132;SDS011;60008;50.826;6.896;2024-02-21T06:47:03;8.87;;;1.90;;
72132;SDS011;60008;50.826;6.896;2024-02-21T06:49:49;5.20;;;1.65;;
72132;SDS011;60008;50.826;6.896;2024-02-21T06:52:36;9.02;;;1.90;;
72132;SDS011;60008;50.826;6.896;2024-02-21T06:55:21;8.98;;;2.35;;
72132;SDS011;60008;50.826;6.896;2024-02-21T06:58:06;5.97;;;1.90;;
72132;SDS011;60008;50.826;6.896;2024-02-21T07:00:56;6.00;;;1.70;;
72132;SDS011;60008;50.826;6.896;2024-02-21T07:03:41;6.03;;;1.40;;
72132;SDS011;60008;50.826;6.896;2024-02-21T07:06:26;8.57;;;1.80;;
72132;SDS011;60008;50.826;6.896;2024-02-21T07:09:11;5.95;;;1.80;;
72132;SDS011;60008;50.826;6.896;2024-02-21T07:11:57;8.32;;;2.08;;
72132;SDS011;60008;50.826;6.896;2024-02-21T07:14:45;7.40;;;2.13;;
72132;SDS011;60008;50.826;6.896;2024-02-21T07:17:30;7.65;;;2.10;;
72132;SDS011;60008;50.826;6.896;2024-02-21T07:20:15;19.70;;;2.42;;
72132;SDS011;60008;50.826;6.896;2024-02-21T07:23:00;8.18;;;2.13;;
72132;SDS011;60008;50.826;6.896;2024-02-21T07:25:45;10.35;;;2.35;;
72132;SDS011;60008;50.826;6.896;2024-02-21T07:28:30;6.27;;;1.67;;
72132;SDS011;60008;50.826;6.896;2024-02-21T07:31:15;11.05;;;2.10;;
72132;SDS011;60008;50.826;6.896;2024-02-21T07:34:00;10.50;;;2.20;;
72132;SDS011;60008;50.826;6.896;2024-02-21T07:36:45;7.55;;;2.15;;
72132;SDS011;60008;50.826;6.896;2024-02-21T07:39:30;7.55;;;2.30;;
72132;SDS011;60008;50.826;6.896;2024-02-21T07:42:15;7.83;;;2.67;;
72132;SDS011;60008;50.826;6.896;2024-02-21T07:45:00;5.53;;;1.83;;
72132;SDS011;60008;50.826;6.896;2024-02-21T07:47:46;6.82;;;2.30;;
72132;SDS011;60008;50.826;6.896;2024-02-21T07:50:30;7.40;;;2.00;;
72132;SDS011;60008;50.826;6.896;2024-02-21T07:53:16;7.68;;;1.92;;
72132;SDS011;60008;50.826;6.896;2024-02-21T07:56:01;13.97;;;2.63;;
72132;SDS011;60008;50.826;6.896;2024-02-21T07:58:46;8.60;;;1.90;;
72132;SDS011;60008;50.826;6.896;2024-02-21T08:01:31;17.50;;;2.40;;
72132;SDS011;60008;50.826;6.896;2024-02-21T08:04:16;7.93;;;1.83;;
72132;SDS011;60008;50.826;6.896;2024-02-21T08:07:01;9.52;;;1.77;;
72132;SDS011;60008;50.826;6.896;2024-02-21T08:09:48;7.07;;;2.00;;
72132;SDS011;60008;50.826;6.896;2024-02-21T08:12:34;6.05;;;1.60;;
72132;SDS011;60008;50.826;6.896;2024-02-21T08:15:19;8.50;;;1.98;;
72132;SDS011;60008;50.826;6.896;2024-02-21T08:18:05;6.30;;;2.28;;
72132;SDS011;60008;50.826;6.896;2024-02-21T08:20:50;4.85;;;1.10;;
72132;SDS011;60008;50.826;6.896;2024-02-21T08:23:35;5.63;;;1.90;;
72132;SDS011;60008;50.826;6.896;2024-02-21T08:26:20;10.68;;;2.00;;
72132;SDS011;60008;50.826;6.896;2024-02-21T08:29:05;7.00;;;1.77;;
72132;SDS011;60008;50.826;6.896;2024-02-21T08:31:53;9.32;;;1.85;;
72132;SDS011;60008;50.826;6.896;2024-02-21T08:34:38;9.27;;;2.28;;
72132;SDS011;60008;50.826;6.896;2024-02-21T08:37:23;7.93;;;1.60;;
72132;SDS011;60008;50.826;6.896;2024-02-21T08:40:08;6.50;;;1.98;;
72132;SDS011;60008;50.826;6.896;2024-02-21T08:42:54;8.18;;;1.27;;
72132;SDS011;60008;50.826;6.896;2024-02-21T08:45:39;7.95;;;2.17;;
72132;SDS011;60008;50.826;6.896;2024-02-21T08:48:25;12.25;;;2.30;;
72132;SDS011;60008;50.826;6.896;2024-02-21T08:51:10;10.53;;;2.03;;
72132;SDS011;60008;50.826;6.896;2024-02-21T08:53:58;13.50;;;2.35;;
72132;SDS011;60008;50.826;6.896;2024-02-21T08:56:43;7.53;;;1.70;;
72132;SDS011;60008;50.826;6.896;2024-02-21T08:59:28;12.73;;;1.75;;
72132;SDS011;60008;50.826;6.896;2024-02-21T09:02:13;5.50;;;1.38;;
72132;SDS011;60008;50.826;6.896;2024-02-21T09:05:01;4.57;;;1.60;;
72132;SDS011;60008;50.826;6.896;2024-02-21T09:07:46;9.20;;;2.22;;
72132;SDS011;60008;50.826;6.896;2024-02-21T09:10:31;11.93;;;2.38;;
72132;SDS011;60008;50.826;6.896;2024-02-21T09:13:16;9.35;;;1.75;;
72132;SDS011;60008;50.826;6.896;2024-02-21T09:16:01;7.18;;;1.88;;
72132;SDS011;60008;50.826;6.896;2024-02-21T09:18:48;5.90;;;1.50;;
72132;SDS011;60008;50.826;6.896;2024-02-21T09:21:33;7.70;;;2.00;;
72132;SDS011;60008;50.826;6.896;2024-02-21T09:24:18;8.02;;;1.70;;
72132;SDS011;60008;50.826;6.896;2024-02-21T09:27:03;5.97;;;1.50;;
72132;SDS011;60008;50.826;6.896;2024-02-21T09:29:49;7.95;;;2.00;;
72132;SDS011;60008;50.826;6.896;2024-02-21T09:32:34;7.87;;;2.10;;
72132;SDS011;60008;50.826;6.896;2024-02-21T09:35:20;8.82;;;1.83;;
72132;SDS011;60008;50.826;6.896;2024-02-21T09:38:08;9.90;;;2.08;;
72132;SDS011;60008;50.826;6.896;2024-02-21T09:41:00;4.70;;;1.60;;
72132;SDS011;60008;50.826;6.896;2024-02-21T09:43:52;8.25;;;2.35;;
72132;SDS011;60008;50.826;6.896;2024-02-21T09:49:38;7.22;;;1.13;;
72132;SDS011;60008;50.826;6.896;2024-02-21T09:52:26;7.22;;;1.80;;
72132;SDS011;60008;50.826;6.896;2024-02-21T09:55:11;8.50;;;1.85;;
72132;SDS011;60008;50.826;6.896;2024-02-21T09:57:59;10.45;;;1.80;;
72132;SDS011;60008;50.826;6.896;2024-02-21T10:00:44;7.13;;;1.60;;
72132;SDS011;60008;50.826;6.896;2024-02-21T10:03:29;2.00;;;0.65;;
72132;SDS011;60008;50.826;6.896;2024-02-21T10:06:15;3.10;;;0.82;;
72132;SDS011;60008;50.826;6.896;2024-02-21T10:09:00;5.00;;;1.30;;
72132;SDS011;60008;50.826;6.896;2024-02-21T10:11:45;7.75;;;2.10;;
72132;SDS011;60008;50.826;6.896;2024-02-21T10:14:30;5.57;;;1.40;;
72132;SDS011;60008;50.826;6.896;2024-02-21T10:17:16;8.20;;;1.80;;
72132;SDS011;60008;50.826;6.896;2024-02-21T10:20:09;6.20;;;1.52;;
72132;SDS011;60008;50.826;6.896;2024-02-21T10:23:05;5.65;;;1.65;;
72132;SDS011;60008;50.826;6.896;2024-02-21T10:25:54;6.88;;;1.40;;
72132;SDS011;60008;50.826;6.896;2024-02-21T10:28:39;6.73;;;1.53;;
72132;SDS011;60008;50.826;6.896;2024-02-21T10:31:29;9.13;;;1.80;;
72132;SDS011;60008;50.826;6.896;2024-02-21T10:34:16;4.35;;;1.33;;
72132;SDS011;60008;50.826;6.896;2024-02-21T10:37:02;7.10;;;1.73;;
72132;SDS011;60008;50.826;6.896;2024-02-21T10:39:48;7.03;;;1.60;;
72132;SDS011;60008;50.826;6.896;2024-02-21T10:42:33;5.37;;;1.47;;
72132;SDS011;60008;50.826;6.896;2024-02-21T10:45:20;4.28;;;1.20;;
72132;SDS011;60008;50.826;6.896;2024-02-21T10:57:25;4.77;;;0.90;;
72132;SDS011;60008;50.826;6.896;2024-02-21T11:00:12;4.32;;;1.05;;
72132;SDS011;60008;50.826;6.896;2024-02-21T11:03:00;7.68;;;1.50;;
72132;SDS011;60008;50.826;6.896;2024-02-21T11:05:45;5.22;;;1.35;;
72132;SDS011;60008;50.826;6.896;2024-02-21T11:08:31;5.68;;;1.13;;
72132;SDS011;60008;50.826;6.896;2024-02-21T11:11:16;4.60;;;1.03;;
72132;SDS011;60008;50.826;6.896;2024-02-21T11:14:18;6.78;;;1.35;;
72132;SDS011;60008;50.826;6.896;2024-02-21T11:17:16;5.60;;;1.30;;
72132;SDS011;60008;50.826;6.896;2024-02-21T11:20:14;4.97;;;1.33;;
72132;SDS011;60008;50.826;6.896;2024-02-21T11:23:00;4.47;;;1.30;;
72132;SDS011;60008;50.826;6.896;2024-02-21T11:25:46;7.03;;;1.40;;
72132;SDS011;60008;50.826;6.896;2024-02-21T11:28:32;3.05;;;1.10;;
72132;SDS011;60008;50.826;6.896;2024-02-21T11:31:17;5.95;;;1.05;;
72132;SDS011;60008;50.826;6.896;2024-02-21T11:34:03;5.38;;;1.35;;
72132;SDS011;60008;50.826;6.896;2024-02-21T11:36:49;10.32;;;1.77;;
72132;SDS011;60008;50.826;6.896;2024-02-21T11:39:35;8.37;;;1.23;;
72132;SDS011;60008;50.826;6.896;2024-02-21T11:42:20;8.32;;;1.40;;
72132;SDS011;60008;50.826;6.896;2024-02-21T11:45:05;6.05;;;1.50;;
72132;SDS011;60008;50.826;6.896;2024-02-21T11:47:51;8.57;;;1.48;;
72132;SDS011;60008;50.826;6.896;2024-02-21T11:50:36;4.85;;;1.33;;
72132;SDS011;60008;50.826;6.896;2024-02-21T11:53:22;8.27;;;1.43;;
72132;SDS011;60008;50.826;6.896;2024-02-21T11:56:07;5.57;;;1.15;;
72132;SDS011;60008;50.826;6.896;2024-02-21T11:58:52;2.70;;;0.95;;
72132;SDS011;60008;50.826;6.896;2024-02-21T12:01:37;8.18;;;1.63;;
72132;SDS011;60008;50.826;6.896;2024-02-21T12:04:22;7.88;;;1.48;;
72132;SDS011;60008;50.826;6.896;2024-02-21T12:07:09;4.10;;;1.60;;
72132;SDS011;60008;50.826;6.896;2024-02-21T12:09:54;8.35;;;1.65;;
72132;SDS011;60008;50.826;6.896;2024-02-21T12:12:39;4.68;;;1.50;;
72132;SDS011;60008;50.826;6.896;2024-02-21T12:15:25;5.68;;;1.50;;
72132;SDS011;60008;50.826;6.896;2024-02-21T12:18:10;3.60;;;1.20;;
72132;SDS011;60008;50.826;6.896;2024-02-21T12:20:55;4.63;;;1.30;;
72132;SDS011;60008;50.826;6.896;2024-02-21T12:23:40;5.53;;;1.40;;
72132;SDS011;60008;50.826;6.896;2024-02-21T12:26:26;4.72;;;1.17;;
72132;SDS011;60008;50.826;6.896;2024-02-21T12:29:14;3.58;;;1.10;;
72132;SDS011;60008;50.826;6.896;2024-02-21T12:31:59;5.40;;;1.70;;
72132;SDS011;60008;50.826;6.896;2024-02-21T12:34:44;5.53;;;1.70;;
72132;SDS011;60008;50.826;6.896;2024-02-21T12:37:38;8.02;;;2.08;;
72132;SDS011;60008;50.826;6.896;2024-02-21T12:40:24;5.72;;;1.30;;
72132;SDS011;60008;50.826;6.896;2024-02-21T12:43:09;6.22;;;1.65;;
72132;SDS011;60008;50.826;6.896;2024-02-21T12:45:55;9.20;;;1.58;;
72132;SDS011;60008;50.826;6.896;2024-02-21T12:48:39;6.33;;;2.00;;
72132;SDS011;60008;50.826;6.896;2024-02-21T12:51:24;5.22;;;0.85;;
72132;SDS011;60008;50.826;6.896;2024-02-21T12:54:09;6.22;;;1.20;;
72132;SDS011;60008;50.826;6.896;2024-02-21T12:56:56;5.93;;;1.70;;
72132;SDS011;60008;50.826;6.896;2024-02-21T12:59:41;2.90;;;1.00;;
72132;SDS011;60008;50.826;6.896;2024-02-21T13:02:26;3.80;;;1.10;;
72132;SDS011;60008;50.826;6.896;2024-02-21T13:05:11;3.15;;;0.95;;
72132;SDS011;60008;50.826;6.896;2024-02-21T13:07:56;7.35;;;1.33;;
72132;SDS011;60008;50.826;6.896;2024-02-21T13:10:41;8.02;;;1.58;;
72132;SDS011;60008;50.826;6.896;2024-02-21T13:13:26;6.68;;;1.55;;
72132;SDS011;60008;50.826;6.896;2024-02-21T13:16:11;7.57;;;1.60;;
72132;SDS011;60008;50.826;6.896;2024-02-21T13:18:57;6.20;;;1.25;;
72132;SDS011;60008;50.826;6.896;2024-02-21T13:21:42;8.15;;;1.58;;
72132;SDS011;60008;50.826;6.896;2024-02-21T13:24:27;3.97;;;1.33;;
72132;SDS011;60008;50.826;6.896;2024-02-21T13:27:12;4.82;;;1.52;;
72132;SDS011;60008;50.826;6.896;2024-02-21T13:29:58;4.53;;;1.43;;
72132;SDS011;60008;50.826;6.896;2024-02-21T13:32:44;4.38;;;1.50;;
72132;SDS011;60008;50.826;6.896;2024-02-21T13:35:30;6.05;;;1.33;;
72132;SDS011;60008;50.826;6.896;2024-02-21T13:38:15;5.80;;;1.33;;
72132;SDS011;60008;50.826;6.896;2024-02-21T13:41:00;3.75;;;1.35;;
72132;SDS011;60008;50.826;6.896;2024-02-21T13:43:46;4.20;;;1.27;;
72132;SDS011;60008;50.826;6.896;2024-02-21T13:46:31;3.88;;;1.42;;
72132;SDS011;60008;50.826;6.896;2024-02-21T13:49:16;6.40;;;1.70;;
72132;SDS011;60008;50.826;6.896;2024-02-21T13:52:01;4.10;;;1.38;;
72132;SDS011;60008;50.826;6.896;2024-02-21T13:54:47;6.40;;;1.40;;
72132;SDS011;60008;50.826;6.896;2024-02-21T13:57:32;5.03;;;1.37;;
72132;SDS011;60008;50.826;6.896;2024-02-21T14:00:17;6.07;;;1.58;;
72132;SDS011;60008;50.826;6.896;2024-02-21T14:03:04;8.60;;;1.50;;
72132;SDS011;60008;50.826;6.896;2024-02-21T14:05:50;6.63;;;1.30;;
72132;SDS011;60008;50.826;6.896;2024-02-21T14:08:36;3.70;;;1.27;;
72132;SDS011;60008;50.826;6.896;2024-02-21T14:11:22;5.40;;;1.63;;
72132;SDS011;60008;50.826;6.896;2024-02-21T14:14:08;6.55;;;1.30;;
72132;SDS011;60008;50.826;6.896;2024-02-21T14:16:53;8.90;;;1.50;;
72132;SDS011;60008;50.826;6.896;2024-02-21T14:19:38;4.30;;;1.30;;
72132;SDS011;60008;50.826;6.896;2024-02-21T14:22:23;4.10;;;1.20;;
72132;SDS011;60008;50.826;6.896;2024-02-21T14:25:08;9.17;;;1.57;;
72132;SDS011;60008;50.826;6.896;2024-02-21T14:27:53;6.70;;;1.40;;
72132;SDS011;60008;50.826;6.896;2024-02-21T14:30:38;7.50;;;2.90;;
72132;SDS011;60008;50.826;6.896;2024-02-21T14:33:23;8.18;;;1.27;;
72132;SDS011;60008;50.826;6.896;2024-02-21T14:36:10;4.25;;;1.23;;
72132;SDS011;60008;50.826;6.896;2024-02-21T14:38:56;4.67;;;1.23;;
72132;SDS011;60008;50.826;6.896;2024-02-21T14:41:41;3.53;;;1.02;;
72132;SDS011;60008;50.826;6.896;2024-02-21T14:44:26;5.95;;;1.20;;
72132;SDS011;60008;50.826;6.896;2024-02-21T14:47:12;6.32;;;1.23;;
72132;SDS011;60008;50.826;6.896;2024-02-21T14:49:57;7.68;;;1.33;;
72132;SDS011;60008;50.826;6.896;2024-02-21T14:52:42;2.60;;;0.53;;
72132;SDS011;60008;50.826;6.896;2024-02-21T14:55:28;4.70;;;0.95;;
72132;SDS011;60008;50.826;6.896;2024-02-21T14:58:13;6.63;;;1.17;;
72132;SDS011;60008;50.826;6.896;2024-02-21T15:01:00;5.68;;;0.90;;
72132;SDS011;60008;50.826;6.896;2024-02-21T15:03:45;6.15;;;1.08;;
72132;SDS011;60008;50.826;6.896;2024-02-21T15:06:30;5.53;;;0.90;;
72132;SDS011;60008;50.826;6.896;2024-02-21T15:09:16;2.33;;;0.80;;
72132;SDS011;60008;50.826;6.896;2024-02-21T15:12:05;3.17;;;0.85;;
72132;SDS011;60008;50.826;6.896;2024-02-21T15:14:52;4.00;;;1.02;;
72132;SDS011;60008;50.826;6.896;2024-02-21T15:17:37;5.15;;;0.70;;
72132;SDS011;60008;50.826;6.896;2024-02-21T15:20:22;3.77;;;0.90;;
72132;SDS011;60008;50.826;6.896;2024-02-21T15:23:07;3.47;;;1.00;;
72132;SDS011;60008;50.826;6.896;2024-02-21T15:25:53;4.88;;;0.95;;
72132;SDS011;60008;50.826;6.896;2024-02-21T15:28:38;2.78;;;0.88;;
72132;SDS011;60008;50.826;6.896;2024-02-21T15:31:23;4.78;;;1.20;;
72132;SDS011;60008;50.826;6.896;2024-02-21T15:34:08;3.53;;;0.93;;
72132;SDS011;60008;50.826;6.896;2024-02-21T15:36:54;1.40;;;0.50;;
72132;SDS011;60008;50.826;6.896;2024-02-21T15:39:39;4.70;;;1.13;;
72132;SDS011;60008;50.826;6.896;2024-02-21T15:42:23;3.83;;;1.10;;
72132;SDS011;60008;50.826;6.896;2024-02-21T15:45:09;3.95;;;1.05;;
72132;SDS011;60008;50.826;6.896;2024-02-21T15:47:54;5.03;;;1.10;;
72132;SDS011;60008;50.826;6.896;2024-02-21T15:50:39;5.68;;;1.83;;
72132;SDS011;60008;50.826;6.896;2024-02-21T15:53:24;4.63;;;1.02;;
72132;SDS011;60008;50.826;6.896;2024-02-21T15:56:09;5.22;;;1.20;;
72132;SDS011;60008;50.826;6.896;2024-02-21T15:58:54;3.45;;;1.10;;
72132;SDS011;60008;50.826;6.896;2024-02-21T16:01:40;3.57;;;1.00;;
72132;SDS011;60008;50.826;6.896;2024-02-21T16:04:27;6.75;;;0.90;;
72132;SDS011;60008;50.826;6.896;2024-02-21T16:07:16;3.75;;;1.20;;
72132;SDS011;60008;50.826;6.896;2024-02-21T16:10:03;9.98;;;1.27;;
72132;SDS011;60008;50.826;6.896;2024-02-21T16:12:49;6.47;;;1.20;;
72132;SDS011;60008;50.826;6.896;2024-02-21T16:15:35;5.82;;;1.20;;
72132;SDS011;60008;50.826;6.896;2024-02-21T16:18:21;4.67;;;1.20;;
72132;SDS011;60008;50.826;6.896;2024-02-21T16:21:08;5.05;;;1.10;;
72132;SDS011;60008;50.826;6.896;2024-02-21T16:23:53;3.50;;;0.77;;
72132;SDS011;60008;50.826;6.896;2024-02-21T16:26:38;10.68;;;1.10;;
72132;SDS011;60008;50.826;6.896;2024-02-21T16:29:23;5.50;;;1.33;;
72132;SDS011;60008;50.826;6.896;2024-02-21T16:32:08;4.37;;;1.07;;
72132;SDS011;60008;50.826;6.896;2024-02-21T16:34:54;5.30;;;0.93;;
72132;SDS011;60008;50.826;6.896;2024-02-21T16:37:39;5.35;;;1.45;;
72132;SDS011;60008;50.826;6.896;2024-02-21T16:40:24;5.78;;;1.17;;
72132;SDS011;60008;50.826;6.896;2024-02-21T16:43:09;6.45;;;1.30;;
72132;SDS011;60008;50.826;6.896;2024-02-21T16:45:54;6.30;;;1.30;;
72132;SDS011;60008;50.826;6.896;2024-02-21T16:48:39;5.72;;;1.20;;